createdAt,value
2018-03-31T00:00:00.149Z,7.20
2018-03-31T00:02:27.614Z,7.10
2018-03-31T00:04:55.084Z,7.00
2018-03-31T00:07:22.072Z,7.00
2018-03-31T00:09:49.486Z,7.00
2018-03-31T00:12:16.608Z,7.00
2018-03-31T00:14:43.679Z,7.00
2018-03-31T00:17:10.678Z,6.90
2018-03-31T00:19:38.083Z,6.70
2018-03-31T00:22:05.084Z,6.70
2018-03-31T00:24:32.108Z,6.60
2018-03-31T00:26:59.101Z,6.50
2018-03-31T00:29:26.137Z,6.50
2018-03-31T00:31:53.605Z,6.40
2018-03-31T00:34:20.617Z,6.40
2018-03-31T00:36:47.613Z,6.20
2018-03-31T00:39:14.628Z,6.10
2018-03-31T00:41:42.096Z,6.00
2018-03-31T00:44:09.104Z,6.10
2018-03-31T00:46:36.502Z,6.00
2018-03-31T00:49:03.523Z,6.00
2018-03-31T00:51:30.591Z,6.00
2018-03-31T00:53:57.611Z,6.00
2018-03-31T00:56:24.636Z,6.00
2018-03-31T00:58:51.715Z,6.10
2018-03-31T01:01:18.793Z,6.00
2018-03-31T01:03:45.870Z,5.90
2018-03-31T01:06:12.941Z,5.80
2018-03-31T01:08:40.014Z,5.80
2018-03-31T01:11:07.018Z,5.80
2018-03-31T01:13:34.028Z,5.90
2018-03-31T01:16:01.129Z,5.80
2018-03-31T01:18:28.145Z,5.80
2018-03-31T01:20:55.137Z,5.80
2018-03-31T01:23:22.138Z,5.80
2018-03-31T01:25:49.205Z,5.80
2018-03-31T01:28:19.233Z,5.80
2018-03-31T01:30:46.325Z,5.70
2018-03-31T01:33:13.325Z,5.70
2018-03-31T01:35:40.742Z,5.60
2018-03-31T01:38:07.727Z,5.60
2018-03-31T01:40:34.820Z,5.50
2018-03-31T01:43:01.914Z,5.50
2018-03-31T01:45:29.386Z,5.50
2018-03-31T01:47:56.375Z,5.50
2018-03-31T01:50:23.834Z,5.50
2018-03-31T01:52:50.838Z,5.60
2018-03-31T01:55:17.866Z,5.50
2018-03-31T01:57:44.870Z,5.60
2018-03-31T02:00:12.327Z,5.60
2018-03-31T02:02:39.311Z,5.60
2018-03-31T02:05:06.382Z,5.50
2018-03-31T02:07:33.383Z,5.60
2018-03-31T02:10:00.412Z,5.60
2018-03-31T02:12:27.423Z,5.50
2018-03-31T02:14:54.456Z,5.50
2018-03-31T02:17:21.529Z,5.40
2018-03-31T02:19:48.618Z,5.30
2018-03-31T02:22:15.694Z,5.30
2018-03-31T02:24:43.109Z,5.30
2018-03-31T02:27:10.101Z,5.30
2018-03-31T02:29:37.132Z,5.30
2018-03-31T02:32:04.515Z,5.30
2018-03-31T02:34:31.542Z,5.30
2018-03-31T02:36:58.537Z,5.30
2018-03-31T02:39:25.597Z,5.30
2018-03-31T02:41:52.609Z,5.20
2018-03-31T02:44:19.641Z,5.20
2018-03-31T02:46:46.712Z,5.20
2018-03-31T02:49:13.716Z,5.30
2018-03-31T02:51:41.188Z,5.20
2018-03-31T02:54:08.590Z,5.20
2018-03-31T02:56:35.623Z,5.20
2018-03-31T02:59:02.628Z,5.20
2018-03-31T03:01:29.668Z,5.20
2018-03-31T03:03:56.749Z,5.10
2018-03-31T03:06:23.827Z,5.00
2018-03-31T03:08:51.306Z,5.00
2018-03-31T03:11:18.376Z,5.00
2018-03-31T03:13:45.455Z,4.90
2018-03-31T03:16:12.467Z,4.90
2018-03-31T03:18:39.493Z,4.90
2018-03-31T03:21:06.669Z,4.90
2018-03-31T03:23:33.661Z,4.90
2018-03-31T03:26:01.087Z,4.80
2018-03-31T03:28:28.105Z,4.80
2018-03-31T03:30:55.530Z,4.80
2018-03-31T03:33:22.524Z,4.80
2018-03-31T03:35:49.537Z,4.80
2018-03-31T03:38:16.925Z,4.70
2018-03-31T03:40:44.341Z,4.60
2018-03-31T03:43:11.349Z,4.60
2018-03-31T03:45:38.360Z,4.60
2018-03-31T03:48:05.363Z,4.50
2018-03-31T03:50:32.394Z,4.40
2018-03-31T03:52:59.428Z,4.40
2018-03-31T03:55:26.552Z,4.50
2018-03-31T03:57:53.987Z,4.40
2018-03-31T04:00:21.018Z,4.40
2018-03-31T04:02:48.018Z,4.20
2018-03-31T04:05:15.072Z,4.20
2018-03-31T04:07:42.060Z,4.20
2018-03-31T04:10:09.163Z,4.20
2018-03-31T04:12:36.170Z,4.20
2018-03-31T04:15:03.531Z,4.20
2018-03-31T04:17:30.537Z,4.10
2018-03-31T04:19:57.529Z,4.10
2018-03-31T04:22:24.558Z,4.10
2018-03-31T04:24:51.556Z,4.10
2018-03-31T04:27:18.584Z,4.10
2018-03-31T04:29:45.598Z,4.10
2018-03-31T04:32:12.614Z,4.10
2018-03-31T04:34:39.618Z,4.10
2018-03-31T04:37:06.628Z,4.10
2018-03-31T04:39:33.612Z,4.00
2018-03-31T04:42:00.624Z,4.00
2018-03-31T04:44:27.630Z,4.00
2018-03-31T04:46:54.641Z,3.90
2018-03-31T04:49:21.632Z,3.90
2018-03-31T04:51:49.042Z,3.90
2018-03-31T04:54:16.049Z,3.90
2018-03-31T04:56:43.074Z,3.80
2018-03-31T04:59:10.070Z,3.80
2018-03-31T05:01:37.080Z,3.80
2018-03-31T05:04:04.158Z,3.80
2018-03-31T05:06:31.578Z,3.70
2018-03-31T05:08:58.572Z,3.80
2018-03-31T05:11:25.584Z,3.70
2018-03-31T05:13:52.977Z,3.70
2018-03-31T05:16:20.386Z,3.70
2018-03-31T05:18:47.385Z,3.70
2018-03-31T05:21:14.513Z,3.70
2018-03-31T05:23:41.504Z,3.60
2018-03-31T05:26:08.520Z,3.60
2018-03-31T05:28:35.522Z,3.60
2018-03-31T05:31:02.538Z,3.60
2018-03-31T05:33:29.541Z,3.50
2018-03-31T05:35:56.545Z,3.50
2018-03-31T05:38:23.555Z,3.60
2018-03-31T05:40:50.562Z,3.60
2018-03-31T05:43:18.032Z,3.60
2018-03-31T05:45:45.030Z,3.60
2018-03-31T05:48:12.512Z,3.60
2018-03-31T05:50:39.987Z,3.60
2018-03-31T05:53:07.418Z,3.60
2018-03-31T05:55:34.427Z,3.60
2018-03-31T05:58:01.495Z,3.70
2018-03-31T06:00:28.506Z,3.70
2018-03-31T06:02:55.536Z,3.70
2018-03-31T06:05:22.617Z,3.80
2018-03-31T06:07:49.699Z,4.00
2018-03-31T06:10:17.093Z,4.20
2018-03-31T06:12:44.548Z,4.20
2018-03-31T06:15:11.617Z,4.20
2018-03-31T06:17:38.697Z,4.30
2018-03-31T06:20:05.783Z,4.20
2018-03-31T06:22:33.210Z,4.10
2018-03-31T06:25:00.212Z,4.10
2018-03-31T06:27:27.234Z,4.10
2018-03-31T06:29:54.276Z,4.10
2018-03-31T06:32:21.676Z,4.30
2018-03-31T06:34:49.126Z,4.40
2018-03-31T06:37:16.149Z,4.40
2018-03-31T06:39:43.172Z,4.50
2018-03-31T06:42:10.176Z,4.70
2018-03-31T06:44:37.220Z,4.80
2018-03-31T06:47:04.240Z,4.90
2018-03-31T06:49:31.244Z,5.00
2018-03-31T06:51:58.275Z,5.10
2018-03-31T06:54:25.269Z,5.20
2018-03-31T06:56:52.274Z,5.30
2018-03-31T06:59:19.289Z,5.30
2018-03-31T07:01:46.280Z,5.40
2018-03-31T07:04:13.389Z,5.40
2018-03-31T07:06:40.382Z,5.60
2018-03-31T07:09:07.792Z,5.70
2018-03-31T07:11:34.781Z,5.70
2018-03-31T07:14:01.820Z,6.60
2018-03-31T07:16:28.862Z,6.40
2018-03-31T07:18:55.928Z,6.20
2018-03-31T07:21:23.001Z,6.10
2018-03-31T07:23:50.026Z,6.10
2018-03-31T07:26:17.039Z,6.00
2018-03-31T07:28:44.130Z,6.00
2018-03-31T07:31:11.527Z,6.20
2018-03-31T07:33:38.986Z,6.50
2018-03-31T07:36:06.056Z,6.40
2018-03-31T07:38:33.120Z,6.80
2018-03-31T07:41:00.148Z,7.10
2018-03-31T07:43:27.174Z,7.40
2018-03-31T07:45:54.183Z,7.60
2018-03-31T07:48:21.223Z,7.90
2018-03-31T07:50:48.216Z,7.90
2018-03-31T07:53:15.250Z,7.90
2018-03-31T07:55:42.324Z,8.00
2018-03-31T07:58:09.410Z,8.30
2018-03-31T08:00:36.409Z,8.40
2018-03-31T08:03:03.434Z,8.60
2018-03-31T08:05:30.437Z,8.90
2018-03-31T08:07:57.622Z,9.30
2018-03-31T08:10:25.012Z,9.60
2018-03-31T08:12:52.048Z,9.60
2018-03-31T08:15:19.046Z,9.50
2018-03-31T08:17:46.054Z,9.70
2018-03-31T08:20:13.174Z,9.90
2018-03-31T08:22:40.663Z,10.20
2018-03-31T08:25:08.138Z,10.40
2018-03-31T08:27:35.622Z,10.60
2018-03-31T08:30:03.099Z,10.70
2018-03-31T08:32:30.100Z,10.70
2018-03-31T08:34:57.152Z,10.60
2018-03-31T08:37:24.556Z,10.80
2018-03-31T08:39:51.586Z,10.80
2018-03-31T08:42:18.601Z,11.20
2018-03-31T08:44:46.612Z,11.30
2018-03-31T08:47:13.616Z,11.20
2018-03-31T08:49:40.633Z,11.20
2018-03-31T08:52:07.621Z,11.30
2018-03-31T08:54:34.695Z,11.40
2018-03-31T08:57:02.049Z,11.90
2018-03-31T08:59:29.523Z,11.90
2018-03-31T09:01:56.927Z,11.90
2018-03-31T09:04:23.943Z,11.90
2018-03-31T09:06:50.940Z,12.30
2018-03-31T09:09:18.396Z,12.80
2018-03-31T09:11:45.407Z,12.80
2018-03-31T09:14:12.865Z,12.90
2018-03-31T09:16:39.991Z,12.90
2018-03-31T09:19:07.004Z,13.00
2018-03-31T09:21:34.088Z,13.10
2018-03-31T09:24:01.160Z,13.40
2018-03-31T09:26:28.263Z,13.30
2018-03-31T09:28:55.289Z,13.70
2018-03-31T09:31:22.289Z,13.70
2018-03-31T09:33:49.330Z,13.30
2018-03-31T09:36:16.855Z,13.10
2018-03-31T09:38:44.291Z,13.40
2018-03-31T09:41:11.318Z,13.50
2018-03-31T09:43:38.353Z,13.70
2018-03-31T09:46:05.391Z,13.40
2018-03-31T09:48:32.384Z,13.30
2018-03-31T09:50:59.491Z,13.40
2018-03-31T09:53:26.956Z,13.50
2018-03-31T09:55:53.977Z,13.50
2018-03-31T09:58:21.013Z,13.80
2018-03-31T10:00:48.424Z,14.00
2018-03-31T10:03:15.420Z,13.90
2018-03-31T10:05:42.528Z,14.00
2018-03-31T10:08:09.538Z,14.00
2018-03-31T10:10:36.574Z,14.00
2018-03-31T10:13:03.603Z,14.20
2018-03-31T10:15:30.635Z,14.30
2018-03-31T10:17:58.042Z,14.00
2018-03-31T10:20:25.091Z,14.00
2018-03-31T10:22:52.498Z,14.10
2018-03-31T10:25:19.517Z,14.00
2018-03-31T10:27:46.626Z,13.80
2018-03-31T10:30:13.654Z,13.90
2018-03-31T10:32:40.708Z,13.70
2018-03-31T10:35:07.742Z,13.70
2018-03-31T10:37:34.736Z,13.60
2018-03-31T10:40:01.760Z,13.60
2018-03-31T10:42:28.769Z,13.40
2018-03-31T10:44:55.794Z,13.50
2018-03-31T10:47:22.829Z,13.70
2018-03-31T10:49:49.859Z,13.80
2018-03-31T10:52:17.266Z,14.20
2018-03-31T10:54:44.285Z,14.20
2018-03-31T10:57:11.364Z,14.40
2018-03-31T10:59:38.406Z,14.50
2018-03-31T11:02:05.404Z,14.20
2018-03-31T11:04:32.497Z,14.20
2018-03-31T11:06:59.908Z,13.80
2018-03-31T11:09:26.954Z,13.80
2018-03-31T11:11:54.372Z,14.00
2018-03-31T11:14:21.397Z,14.00
2018-03-31T11:16:48.463Z,14.10
2018-03-31T11:19:15.544Z,14.40
2018-03-31T11:21:42.622Z,14.60
2018-03-31T11:24:10.026Z,14.70
2018-03-31T11:26:37.058Z,14.70
2018-03-31T11:29:04.057Z,14.60
2018-03-31T11:31:31.521Z,14.30
2018-03-31T11:33:58.602Z,14.30
2018-03-31T11:36:26.034Z,14.10
2018-03-31T11:38:53.155Z,14.10
2018-03-31T11:41:20.239Z,14.00
2018-03-31T11:43:47.642Z,13.60
2018-03-31T11:46:14.668Z,13.60
2018-03-31T11:48:41.671Z,13.50
2018-03-31T11:51:09.141Z,13.60
2018-03-31T11:53:36.545Z,13.70
2018-03-31T11:56:03.587Z,13.70
2018-03-31T11:58:30.593Z,14.00
2018-03-31T12:00:57.634Z,13.90
2018-03-31T12:03:24.700Z,14.10
2018-03-31T12:05:51.776Z,14.30
2018-03-31T12:08:18.851Z,14.40
2018-03-31T12:10:45.863Z,14.50
2018-03-31T12:13:12.893Z,14.60
2018-03-31T12:15:39.924Z,14.70
2018-03-31T12:18:06.920Z,14.60
2018-03-31T12:20:34.008Z,14.40
2018-03-31T12:23:01.080Z,14.40
2018-03-31T12:25:28.165Z,14.30
2018-03-31T12:27:55.646Z,14.50
2018-03-31T12:30:23.065Z,14.60
2018-03-31T12:32:50.076Z,14.60
2018-03-31T12:35:17.082Z,14.90
2018-03-31T12:37:44.517Z,15.00
2018-03-31T12:40:11.515Z,15.10
2018-03-31T12:42:38.529Z,14.90
2018-03-31T12:45:05.538Z,14.70
2018-03-31T12:47:32.556Z,14.50
2018-03-31T12:49:59.570Z,14.60
2018-03-31T12:52:26.626Z,14.70
2018-03-31T12:54:53.630Z,14.70
2018-03-31T12:57:20.796Z,14.70
2018-03-31T12:59:47.807Z,14.70
2018-03-31T13:02:15.282Z,14.80
2018-03-31T13:04:42.676Z,14.60
2018-03-31T13:07:10.142Z,14.60
2018-03-31T13:09:37.218Z,14.60
2018-03-31T13:12:04.632Z,14.70
2018-03-31T13:14:31.659Z,14.80
2018-03-31T13:16:58.751Z,14.90
2018-03-31T13:19:26.230Z,14.90
2018-03-31T13:21:53.700Z,15.00
2018-03-31T13:24:20.791Z,15.00
2018-03-31T13:26:48.210Z,14.90
2018-03-31T13:29:15.213Z,14.90
2018-03-31T13:31:42.232Z,14.90
2018-03-31T13:34:09.248Z,14.80
2018-03-31T13:36:36.268Z,14.40
2018-03-31T13:39:03.652Z,14.60
2018-03-31T13:41:30.679Z,14.60
2018-03-31T13:43:57.689Z,14.50
2018-03-31T13:46:24.688Z,14.40
2018-03-31T13:48:51.757Z,14.50
2018-03-31T13:51:18.777Z,14.60
2018-03-31T13:53:45.818Z,14.70
2018-03-31T13:56:12.936Z,14.70
2018-03-31T13:58:40.432Z,14.60
2018-03-31T14:01:07.440Z,14.60
2018-03-31T14:03:34.452Z,14.60
2018-03-31T14:06:01.511Z,14.60
2018-03-31T14:08:28.596Z,14.60
2018-03-31T14:10:55.694Z,14.70
2018-03-31T14:13:22.717Z,14.70
2018-03-31T14:15:49.725Z,14.70
2018-03-31T14:18:17.144Z,14.70
2018-03-31T14:20:44.148Z,14.70
2018-03-31T14:23:11.171Z,14.70
2018-03-31T14:25:38.219Z,14.70
2018-03-31T14:28:06.133Z,14.60
2018-03-31T14:30:33.155Z,14.50
2018-03-31T14:33:00.176Z,14.50
2018-03-31T14:35:27.184Z,14.60
2018-03-31T14:37:54.210Z,14.50
2018-03-31T14:40:21.694Z,14.50
2018-03-31T14:42:49.161Z,14.40
2018-03-31T14:45:16.567Z,14.30
2018-03-31T14:47:43.604Z,14.40
2018-03-31T14:50:10.728Z,14.30
2018-03-31T14:52:37.749Z,14.40
2018-03-31T14:55:04.810Z,14.50
2018-03-31T14:57:31.893Z,14.40
2018-03-31T14:59:59.012Z,14.40
2018-03-31T15:02:26.042Z,14.30
2018-03-31T15:04:53.055Z,14.30
2018-03-31T15:07:20.073Z,14.20
2018-03-31T15:09:47.174Z,14.20
2018-03-31T15:12:14.593Z,14.30
2018-03-31T15:14:41.637Z,14.30
2018-03-31T15:17:09.108Z,14.20
2018-03-31T15:19:36.591Z,14.20
2018-03-31T15:22:04.062Z,14.20
2018-03-31T15:24:31.745Z,14.20
2018-03-31T15:26:58.837Z,14.20
2018-03-31T15:29:26.311Z,13.90
2018-03-31T15:31:53.322Z,13.90
2018-03-31T15:34:20.344Z,13.70
2018-03-31T15:36:47.456Z,13.80
2018-03-31T15:39:14.483Z,13.80
2018-03-31T15:41:41.573Z,13.80
2018-03-31T15:44:08.998Z,13.70
2018-03-31T15:46:36.040Z,13.70
2018-03-31T15:49:03.083Z,13.70
2018-03-31T15:51:30.190Z,13.70
2018-03-31T15:53:57.253Z,13.70
2018-03-31T15:56:24.728Z,13.70
2018-03-31T15:58:52.225Z,13.60
2018-03-31T16:01:19.696Z,13.60
2018-03-31T16:03:47.121Z,13.60
2018-03-31T16:06:14.136Z,13.60
2018-03-31T16:08:41.169Z,13.50
2018-03-31T16:11:08.165Z,13.40
2018-03-31T16:13:35.248Z,13.40
2018-03-31T16:16:02.250Z,13.40
2018-03-31T16:18:29.736Z,13.30
2018-03-31T16:20:56.780Z,13.30
2018-03-31T16:23:23.796Z,13.30
2018-03-31T16:25:50.800Z,13.30
2018-03-31T16:28:17.876Z,13.30
2018-03-31T16:30:44.882Z,13.30
2018-03-31T16:33:12.358Z,13.30
2018-03-31T16:35:39.803Z,13.20
2018-03-31T16:38:06.814Z,13.20
2018-03-31T16:40:34.298Z,13.30
2018-03-31T16:43:01.775Z,13.30
2018-03-31T16:45:29.351Z,13.30
2018-03-31T16:47:56.362Z,13.30
2018-03-31T16:50:23.403Z,13.30
2018-03-31T16:52:50.805Z,13.30
2018-03-31T16:55:17.870Z,13.40
2018-03-31T16:57:45.265Z,13.40
2018-03-31T17:00:12.288Z,13.40
2018-03-31T17:02:39.368Z,13.40
2018-03-31T17:05:06.394Z,13.30
2018-03-31T17:07:33.454Z,13.40
2018-03-31T17:10:00.492Z,13.70
2018-03-31T17:12:27.917Z,13.70
2018-03-31T17:14:54.943Z,13.70
2018-03-31T17:17:21.936Z,13.60
2018-03-31T17:19:49.373Z,13.30
2018-03-31T17:22:16.397Z,13.40
2018-03-31T17:24:43.444Z,13.10
2018-03-31T17:27:10.512Z,13.00
2018-03-31T17:29:37.592Z,12.80
2018-03-31T17:32:04.676Z,12.80
2018-03-31T17:34:31.697Z,12.70
2018-03-31T17:36:58.722Z,12.60
2018-03-31T17:39:25.797Z,12.60
2018-03-31T17:41:53.253Z,12.50
2018-03-31T17:44:20.287Z,12.50
2018-03-31T17:46:47.288Z,12.40
2018-03-31T17:49:14.417Z,12.30
2018-03-31T17:51:41.866Z,12.10
2018-03-31T17:54:09.354Z,12.10
2018-03-31T17:56:36.366Z,12.10
2018-03-31T17:59:03.400Z,12.10
2018-03-31T18:01:30.812Z,12.10
2018-03-31T18:03:57.874Z,12.10
2018-03-31T18:06:25.032Z,12.20
2018-03-31T18:08:52.101Z,12.20
2018-03-31T18:11:19.507Z,12.20
2018-03-31T18:13:46.509Z,12.20
2018-03-31T18:16:13.615Z,12.10
2018-03-31T18:18:41.027Z,11.80
2018-03-31T18:21:08.186Z,11.80
2018-03-31T18:23:35.658Z,11.60
2018-03-31T18:26:03.076Z,11.60
2018-03-31T18:28:30.076Z,11.70
2018-03-31T18:30:57.182Z,11.60
2018-03-31T18:33:24.211Z,11.50
2018-03-31T18:35:51.326Z,11.20
2018-03-31T18:38:18.739Z,10.90
2018-03-31T18:40:45.869Z,10.90
2018-03-31T18:43:13.375Z,10.80
2018-03-31T18:45:40.807Z,10.80
2018-03-31T18:48:07.817Z,10.80
2018-03-31T18:50:35.236Z,10.70
2018-03-31T18:53:02.276Z,10.70
2018-03-31T18:55:29.705Z,10.60
2018-03-31T18:57:56.708Z,10.70
2018-03-31T19:00:23.732Z,10.70
2018-03-31T19:02:50.766Z,10.70
2018-03-31T19:05:18.240Z,10.60
2018-03-31T19:07:45.322Z,10.60
2018-03-31T19:10:12.754Z,10.60
2018-03-31T19:12:39.760Z,10.60
2018-03-31T19:15:06.790Z,10.50
2018-03-31T19:17:33.928Z,10.50
2018-03-31T19:20:01.377Z,10.40
2018-03-31T19:22:28.482Z,10.40
2018-03-31T19:25:01.596Z,10.20
2018-03-31T19:27:29.096Z,10.20
2018-03-31T19:29:56.106Z,10.20
2018-03-31T19:32:23.146Z,10.30
2018-03-31T19:34:50.148Z,10.30
2018-03-31T19:37:17.252Z,10.10
2018-03-31T19:39:50.753Z,10.10
2018-03-31T19:42:17.762Z,10.00
2018-03-31T19:44:45.232Z,10.00
2018-03-31T19:47:12.331Z,10.00
2018-03-31T19:49:39.341Z,10.00
2018-03-31T19:52:06.477Z,10.10
2018-03-31T19:54:33.518Z,10.00
2018-03-31T19:57:00.544Z,10.10
2018-03-31T19:59:27.562Z,10.10
2018-03-31T20:01:54.636Z,9.90
2018-03-31T20:04:21.637Z,9.70
2018-03-31T20:06:49.116Z,8.90
2018-03-31T20:09:16.546Z,8.90
2018-03-31T20:11:43.554Z,8.90
2018-03-31T20:14:10.562Z,8.80
2018-03-31T20:16:37.576Z,8.70
2018-03-31T20:19:04.582Z,8.70
2018-03-31T20:21:32.010Z,8.60
2018-03-31T20:23:59.026Z,8.60
2018-03-31T20:26:26.445Z,8.70
2018-03-31T20:28:53.478Z,8.70
2018-03-31T20:31:20.945Z,8.30
2018-03-31T20:33:48.023Z,8.30
2018-03-31T20:36:15.106Z,8.30
2018-03-31T20:38:42.492Z,8.20
2018-03-31T20:41:09.956Z,8.20
2018-03-31T20:43:36.959Z,8.30
2018-03-31T20:46:03.972Z,8.20
2018-03-31T20:48:30.968Z,8.30
2018-03-31T20:50:58.007Z,8.20
2018-03-31T20:53:25.010Z,8.20
2018-03-31T20:55:52.088Z,8.20
2018-03-31T20:58:19.118Z,8.10
2018-03-31T21:00:46.112Z,8.10
2018-03-31T21:03:13.117Z,8.00
2018-03-31T21:05:40.549Z,7.90
2018-03-31T21:08:07.570Z,7.90
2018-03-31T21:10:34.953Z,7.80
2018-03-31T21:13:02.430Z,7.80
2018-03-31T21:15:29.908Z,7.80
2018-03-31T21:17:57.391Z,7.80
2018-03-31T21:20:24.415Z,7.90
2018-03-31T21:22:51.520Z,7.80
2018-03-31T21:25:18.605Z,7.90
2018-03-31T21:27:45.678Z,7.90
2018-03-31T21:30:13.089Z,7.90
2018-03-31T21:32:40.125Z,7.90
2018-03-31T21:35:07.131Z,7.80
2018-03-31T21:37:34.154Z,7.80
2018-03-31T21:40:01.244Z,7.80
2018-03-31T21:42:28.327Z,7.80
2018-03-31T21:44:55.712Z,7.80
2018-03-31T21:47:23.148Z,7.90
2018-03-31T21:49:50.248Z,7.90
2018-03-31T21:52:17.352Z,7.80
2018-03-31T21:54:44.815Z,7.80
2018-03-31T21:57:12.284Z,7.90
2018-03-31T21:59:39.360Z,7.90
2018-03-31T22:02:06.371Z,7.90
2018-03-31T22:04:33.369Z,7.90
2018-03-31T22:07:00.388Z,7.80
2018-03-31T22:09:27.777Z,7.70
2018-03-31T22:11:55.180Z,7.70
2018-03-31T22:14:27.745Z,7.80
2018-03-31T22:16:54.819Z,7.80
2018-03-31T22:19:22.301Z,7.70
2018-03-31T22:21:49.360Z,7.70
2018-03-31T22:24:16.444Z,7.50
2018-03-31T22:26:43.442Z,7.50
2018-03-31T22:29:10.467Z,7.40
2018-03-31T22:31:37.469Z,7.40
2018-03-31T22:34:04.936Z,7.60
2018-03-31T22:36:32.355Z,7.50
2018-03-31T22:38:59.374Z,7.50
2018-03-31T22:41:26.372Z,7.40
2018-03-31T22:43:53.384Z,7.40
2018-03-31T22:46:20.391Z,7.40
2018-03-31T22:48:47.490Z,7.40
2018-03-31T22:51:14.877Z,7.40
2018-03-31T22:53:42.285Z,7.40
2018-03-31T22:56:09.280Z,7.40
2018-03-31T22:58:36.297Z,7.40
2018-03-31T23:01:03.288Z,7.40
2018-03-31T23:03:30.309Z,7.50
2018-03-31T23:05:57.319Z,7.50
2018-03-31T23:08:24.784Z,7.40
2018-03-31T23:10:51.791Z,7.40
2018-03-31T23:13:18.815Z,7.40
2018-03-31T23:15:46.238Z,7.40
2018-03-31T23:18:13.256Z,7.40
2018-03-31T23:20:40.261Z,7.40
2018-03-31T23:23:07.755Z,7.30
2018-03-31T23:25:35.162Z,7.40
2018-03-31T23:28:02.220Z,7.40
2018-03-31T23:30:29.226Z,7.30
2018-03-31T23:32:56.251Z,7.30
2018-03-31T23:35:23.649Z,7.40
2018-03-31T23:37:50.668Z,7.40
2018-03-31T23:40:17.748Z,7.40
2018-03-31T23:42:44.779Z,7.40
2018-03-31T23:45:11.802Z,7.40
2018-03-31T23:47:38.800Z,7.50
2018-03-31T23:50:05.822Z,7.50
2018-03-31T23:52:32.912Z,7.50
2018-03-31T23:54:59.989Z,7.50
2018-03-31T23:57:26.992Z,7.50
2018-03-31T23:59:54.033Z,7.50
